sensor_id;sensor_type;location;lat;lon;timestamp;pressure;altitude;pressure_sealevel;temperature;humidity
57412;BME280;43247;52.828;-8.980;2023-04-28T00:00:49;100743.35;;;12.69;82.39
57412;BME280;43247;52.828;-8.980;2023-04-28T00:01:49;100745.48;;;12.69;82.38
57412;BME280;43247;52.828;-8.980;2023-04-28T00:02:49;100745.89;;;12.69;82.40
57412;BME280;43247;52.828;-8.980;2023-04-28T00:03:50;100745.73;;;12.69;82.45
57412;BME280;43247;52.828;-8.980;2023-04-28T00:04:50;100747.27;;;12.69;82.49
57412;BME280;43247;52.828;-8.980;2023-04-28T00:05:52;100748.67;;;12.69;82.42
57412;BME280;43247;52.828;-8.980;2023-04-28T00:06:50;100750.11;;;12.68;82.48
57412;BME280;43247;52.828;-8.980;2023-04-28T00:07:50;100750.51;;;12.68;82.39
57412;BME280;43247;52.828;-8.980;2023-04-28T00:08:51;100750.89;;;12.68;82.42
57412;BME280;43247;52.828;-8.980;2023-04-28T00:09:50;100751.99;;;12.68;82.36
57412;BME280;43247;52.828;-8.980;2023-04-28T00:10:51;100751.92;;;12.68;82.31
57412;BME280;43247;52.828;-8.980;2023-04-28T00:11:51;100754.11;;;12.68;82.38
57412;BME280;43247;52.828;-8.980;2023-04-28T00:12:51;100752.86;;;12.68;82.32
57412;BME280;43247;52.828;-8.980;2023-04-28T00:13:52;100753.45;;;12.68;82.33
57412;BME280;43247;52.828;-8.980;2023-04-28T00:14:52;100755.56;;;12.68;82.35
57412;BME280;43247;52.828;-8.980;2023-04-28T00:15:52;100757.22;;;12.68;82.29
57412;BME280;43247;52.828;-8.980;2023-04-28T00:16:52;100756.38;;;12.68;82.33
57412;BME280;43247;52.828;-8.980;2023-04-28T00:17:52;100757.77;;;12.68;82.40
57412;BME280;43247;52.828;-8.980;2023-04-28T00:18:53;100759.67;;;12.67;82.35
57412;BME280;43247;52.828;-8.980;2023-04-28T00:19:53;100760.20;;;12.67;82.38
57412;BME280;43247;52.828;-8.980;2023-04-28T00:20:54;100762.86;;;12.67;82.31
57412;BME280;43247;52.828;-8.980;2023-04-28T00:21:53;100763.16;;;12.67;82.34
57412;BME280;43247;52.828;-8.980;2023-04-28T00:22:53;100763.50;;;12.67;82.32
57412;BME280;43247;52.828;-8.980;2023-04-28T00:23:54;100763.11;;;12.67;82.31
57412;BME280;43247;52.828;-8.980;2023-04-28T00:24:54;100764.44;;;12.67;82.32
57412;BME280;43247;52.828;-8.980;2023-04-28T00:25:55;100761.26;;;12.67;82.26
57412;BME280;43247;52.828;-8.980;2023-04-28T00:26:55;100759.42;;;12.67;82.29
57412;BME280;43247;52.828;-8.980;2023-04-28T00:27:55;100759.72;;;12.67;82.30
57412;BME280;43247;52.828;-8.980;2023-04-28T00:28:55;100760.79;;;12.66;82.32
57412;BME280;43247;52.828;-8.980;2023-04-28T00:29:56;100758.62;;;12.67;82.29
57412;BME280;43247;52.828;-8.980;2023-04-28T00:30:56;100761.06;;;12.66;82.30
57412;BME280;43247;52.828;-8.980;2023-04-28T00:31:56;100761.61;;;12.67;82.33
57412;BME280;43247;52.828;-8.980;2023-04-28T00:32:57;100761.68;;;12.67;82.28
57412;BME280;43247;52.828;-8.980;2023-04-28T00:33:57;100764.61;;;12.66;82.27
57412;BME280;43247;52.828;-8.980;2023-04-28T00:34:57;100765.38;;;12.67;82.27
57412;BME280;43247;52.828;-8.980;2023-04-28T00:35:58;100768.52;;;12.67;82.23
57412;BME280;43247;52.828;-8.980;2023-04-28T00:36:59;100770.48;;;12.67;82.29
57412;BME280;43247;52.828;-8.980;2023-04-28T00:37:59;100771.16;;;12.67;82.31
57412;BME280;43247;52.828;-8.980;2023-04-28T00:38:59;100772.73;;;12.66;82.28
57412;BME280;43247;52.828;-8.980;2023-04-28T00:39:59;100771.84;;;12.66;82.35
57412;BME280;43247;52.828;-8.980;2023-04-28T00:40:59;100773.03;;;12.66;82.38
57412;BME280;43247;52.828;-8.980;2023-04-28T00:42:00;100773.58;;;12.66;82.40
57412;BME280;43247;52.828;-8.980;2023-04-28T00:43:00;100775.41;;;12.66;82.33
57412;BME280;43247;52.828;-8.980;2023-04-28T00:44:00;100772.63;;;12.65;82.37
57412;BME280;43247;52.828;-8.980;2023-04-28T00:45:01;100772.21;;;12.65;82.34
57412;BME280;43247;52.828;-8.980;2023-04-28T00:46:01;100773.36;;;12.66;82.35
57412;BME280;43247;52.828;-8.980;2023-04-28T00:47:02;100771.25;;;12.65;82.34
57412;BME280;43247;52.828;-8.980;2023-04-28T00:48:02;100773.32;;;12.65;82.35
57412;BME280;43247;52.828;-8.980;2023-04-28T00:49:03;100772.29;;;12.65;82.39
57412;BME280;43247;52.828;-8.980;2023-04-28T00:50:04;100772.89;;;12.65;82.35
57412;BME280;43247;52.828;-8.980;2023-04-28T00:51:04;100771.91;;;12.65;82.34
57412;BME280;43247;52.828;-8.980;2023-04-28T00:52:05;100773.64;;;12.65;82.31
57412;BME280;43247;52.828;-8.980;2023-04-28T00:53:05;100772.33;;;12.66;82.35
57412;BME280;43247;52.828;-8.980;2023-04-28T00:54:05;100772.83;;;12.66;82.34
57412;BME280;43247;52.828;-8.980;2023-04-28T00:55:07;100771.51;;;12.65;82.36
57412;BME280;43247;52.828;-8.980;2023-04-28T00:56:06;100772.97;;;12.65;82.34
57412;BME280;43247;52.828;-8.980;2023-04-28T00:57:06;100775.50;;;12.65;82.26
57412;BME280;43247;52.828;-8.980;2023-04-28T00:58:06;100774.62;;;12.64;82.27
57412;BME280;43247;52.828;-8.980;2023-04-28T00:59:06;100777.41;;;12.65;82.22
57412;BME280;43247;52.828;-8.980;2023-04-28T01:00:07;100779.65;;;12.64;82.24
57412;BME280;43247;52.828;-8.980;2023-04-28T01:01:09;100779.89;;;12.64;82.33
57412;BME280;43247;52.828;-8.980;2023-04-28T01:02:07;100779.85;;;12.64;82.42
57412;BME280;43247;52.828;-8.980;2023-04-28T01:03:07;100782.74;;;12.63;82.31
57412;BME280;43247;52.828;-8.980;2023-04-28T01:04:08;100784.50;;;12.63;82.35
57412;BME280;43247;52.828;-8.980;2023-04-28T01:05:08;100784.80;;;12.62;82.41
57412;BME280;43247;52.828;-8.980;2023-04-28T01:06:09;100784.02;;;12.61;82.46
57412;BME280;43247;52.828;-8.980;2023-04-28T01:07:08;100784.26;;;12.61;82.48
57412;BME280;43247;52.828;-8.980;2023-04-28T01:08:09;100784.89;;;12.60;82.46
57412;BME280;43247;52.828;-8.980;2023-04-28T01:09:09;100785.62;;;12.60;82.38
57412;BME280;43247;52.828;-8.980;2023-04-28T01:10:10;100786.33;;;12.60;82.30
57412;BME280;43247;52.828;-8.980;2023-04-28T01:11:10;100787.53;;;12.60;82.29
57412;BME280;43247;52.828;-8.980;2023-04-28T01:12:10;100786.95;;;12.60;82.27
57412;BME280;43247;52.828;-8.980;2023-04-28T01:13:10;100787.77;;;12.60;82.31
57412;BME280;43247;52.828;-8.980;2023-04-28T01:14:10;100789.41;;;12.60;82.35
57412;BME280;43247;52.828;-8.980;2023-04-28T01:15:15;100789.58;;;12.59;82.32
57412;BME280;43247;52.828;-8.980;2023-04-28T01:16:11;100789.49;;;12.59;82.36
57412;BME280;43247;52.828;-8.980;2023-04-28T01:17:11;100789.79;;;12.59;82.39
57412;BME280;43247;52.828;-8.980;2023-04-28T01:18:11;100791.90;;;12.59;82.36
57412;BME280;43247;52.828;-8.980;2023-04-28T01:19:17;100792.03;;;12.59;82.41
57412;BME280;43247;52.828;-8.980;2023-04-28T01:20:12;100791.11;;;12.59;82.37
57412;BME280;43247;52.828;-8.980;2023-04-28T01:21:12;100792.16;;;12.59;82.39
57412;BME280;43247;52.828;-8.980;2023-04-28T01:22:12;100793.41;;;12.58;82.35
57412;BME280;43247;52.828;-8.980;2023-04-28T01:23:13;100792.51;;;12.58;82.26
57412;BME280;43247;52.828;-8.980;2023-04-28T01:24:12;100792.99;;;12.58;82.26
57412;BME280;43247;52.828;-8.980;2023-04-28T01:25:13;100792.84;;;12.58;82.23
57412;BME280;43247;52.828;-8.980;2023-04-28T01:26:13;100794.00;;;12.58;82.24
57412;BME280;43247;52.828;-8.980;2023-04-28T01:27:13;100793.27;;;12.58;82.22
57412;BME280;43247;52.828;-8.980;2023-04-28T01:28:13;100792.91;;;12.58;82.21
57412;BME280;43247;52.828;-8.980;2023-04-28T01:29:13;100794.64;;;12.58;82.19
57412;BME280;43247;52.828;-8.980;2023-04-28T01:30:13;100794.06;;;12.58;82.17
57412;BME280;43247;52.828;-8.980;2023-04-28T01:31:14;100793.62;;;12.58;82.15
57412;BME280;43247;52.828;-8.980;2023-04-28T01:32:14;100794.49;;;12.58;82.16
57412;BME280;43247;52.828;-8.980;2023-04-28T01:33:14;100794.87;;;12.59;82.15
57412;BME280;43247;52.828;-8.980;2023-04-28T01:34:14;100794.98;;;12.58;82.12
57412;BME280;43247;52.828;-8.980;2023-04-28T01:35:15;100796.58;;;12.59;82.12
57412;BME280;43247;52.828;-8.980;2023-04-28T01:36:15;100798.41;;;12.59;82.09
57412;BME280;43247;52.828;-8.980;2023-04-28T01:37:15;100796.96;;;12.59;82.12
57412;BME280;43247;52.828;-8.980;2023-04-28T01:38:15;100798.62;;;12.59;82.10
57412;BME280;43247;52.828;-8.980;2023-04-28T01:39:15;100797.70;;;12.59;82.07
57412;BME280;43247;52.828;-8.980;2023-04-28T01:40:16;100800.22;;;12.59;82.15
57412;BME280;43247;52.828;-8.980;2023-04-28T01:41:16;100799.23;;;12.58;82.19
57412;BME280;43247;52.828;-8.980;2023-04-28T01:42:16;100798.70;;;12.57;82.15
57412;BME280;43247;52.828;-8.980;2023-04-28T01:43:16;100799.67;;;12.57;81.99
57412;BME280;43247;52.828;-8.980;2023-04-28T01:44:16;100797.18;;;12.56;81.94
57412;BME280;43247;52.828;-8.980;2023-04-28T01:45:16;100800.87;;;12.57;81.87
57412;BME280;43247;52.828;-8.980;2023-04-28T01:46:17;100801.49;;;12.57;81.84
57412;BME280;43247;52.828;-8.980;2023-04-28T01:47:17;100801.96;;;12.57;81.79
57412;BME280;43247;52.828;-8.980;2023-04-28T01:48:17;100802.68;;;12.57;81.75
57412;BME280;43247;52.828;-8.980;2023-04-28T01:49:17;100803.95;;;12.57;81.74
57412;BME280;43247;52.828;-8.980;2023-04-28T01:50:17;100803.91;;;12.58;81.72
57412;BME280;43247;52.828;-8.980;2023-04-28T01:51:17;100804.11;;;12.58;81.74
57412;BME280;43247;52.828;-8.980;2023-04-28T01:52:18;100804.92;;;12.59;81.68
57412;BME280;43247;52.828;-8.980;2023-04-28T01:53:18;100804.81;;;12.59;81.62
57412;BME280;43247;52.828;-8.980;2023-04-28T01:54:18;100803.32;;;12.59;81.62
57412;BME280;43247;52.828;-8.980;2023-04-28T01:55:18;100805.22;;;12.59;81.62
57412;BME280;43247;52.828;-8.980;2023-04-28T01:56:18;100803.61;;;12.59;81.62
57412;BME280;43247;52.828;-8.980;2023-04-28T01:57:18;100803.40;;;12.59;81.63
57412;BME280;43247;52.828;-8.980;2023-04-28T01:58:19;100805.42;;;12.59;81.56
57412;BME280;43247;52.828;-8.980;2023-04-28T01:59:19;100803.85;;;12.60;81.52
57412;BME280;43247;52.828;-8.980;2023-04-28T02:00:19;100803.92;;;12.60;81.51
57412;BME280;43247;52.828;-8.980;2023-04-28T02:01:19;100803.73;;;12.60;81.51
57412;BME280;43247;52.828;-8.980;2023-04-28T02:02:19;100804.94;;;12.60;81.53
57412;BME280;43247;52.828;-8.980;2023-04-28T02:03:19;100805.79;;;12.61;81.52
57412;BME280;43247;52.828;-8.980;2023-04-28T02:04:19;100804.59;;;12.61;81.53
57412;BME280;43247;52.828;-8.980;2023-04-28T02:05:20;100806.74;;;12.61;81.54
57412;BME280;43247;52.828;-8.980;2023-04-28T02:06:20;100807.75;;;12.61;81.52
57412;BME280;43247;52.828;-8.980;2023-04-28T02:07:20;100810.37;;;12.61;81.54
57412;BME280;43247;52.828;-8.980;2023-04-28T02:08:20;100811.39;;;12.61;81.54
57412;BME280;43247;52.828;-8.980;2023-04-28T02:09:20;100813.01;;;12.61;81.50
57412;BME280;43247;52.828;-8.980;2023-04-28T02:10:20;100815.00;;;12.61;81.48
57412;BME280;43247;52.828;-8.980;2023-04-28T02:11:21;100815.29;;;12.61;81.44
57412;BME280;43247;52.828;-8.980;2023-04-28T02:12:21;100815.52;;;12.62;81.45
57412;BME280;43247;52.828;-8.980;2023-04-28T02:13:21;100814.18;;;12.61;81.43
57412;BME280;43247;52.828;-8.980;2023-04-28T02:14:22;100815.98;;;12.62;81.44
57412;BME280;43247;52.828;-8.980;2023-04-28T02:15:21;100815.75;;;12.61;81.42
57412;BME280;43247;52.828;-8.980;2023-04-28T02:16:21;100817.91;;;12.62;81.45
57412;BME280;43247;52.828;-8.980;2023-04-28T02:17:22;100818.53;;;12.62;81.43
57412;BME280;43247;52.828;-8.980;2023-04-28T02:18:22;100817.74;;;12.62;81.48
57412;BME280;43247;52.828;-8.980;2023-04-28T02:19:22;100818.60;;;12.62;81.54
57412;BME280;43247;52.828;-8.980;2023-04-28T02:20:22;100819.45;;;12.60;81.23
57412;BME280;43247;52.828;-8.980;2023-04-28T02:21:22;100820.66;;;12.59;81.18
57412;BME280;43247;52.828;-8.980;2023-04-28T02:22:23;100818.81;;;12.59;81.19
57412;BME280;43247;52.828;-8.980;2023-04-28T02:23:23;100821.95;;;12.59;81.22
57412;BME280;43247;52.828;-8.980;2023-04-28T02:24:23;100822.49;;;12.58;81.22
57412;BME280;43247;52.828;-8.980;2023-04-28T02:25:23;100824.58;;;12.58;81.15
57412;BME280;43247;52.828;-8.980;2023-04-28T02:26:24;100821.59;;;12.56;81.11
57412;BME280;43247;52.828;-8.980;2023-04-28T02:27:24;100824.69;;;12.55;81.23
57412;BME280;43247;52.828;-8.980;2023-04-28T02:28:24;100828.38;;;12.55;81.31
57412;BME280;43247;52.828;-8.980;2023-04-28T02:29:25;100826.40;;;12.55;81.36
57412;BME280;43247;52.828;-8.980;2023-04-28T02:30:24;100828.75;;;12.56;81.44
57412;BME280;43247;52.828;-8.980;2023-04-28T02:31:24;100828.07;;;12.56;81.42
57412;BME280;43247;52.828;-8.980;2023-04-28T02:32:25;100829.48;;;12.57;81.40
57412;BME280;43247;52.828;-8.980;2023-04-28T02:33:25;100832.31;;;12.58;81.44
57412;BME280;43247;52.828;-8.980;2023-04-28T02:34:25;100833.08;;;12.58;81.41
57412;BME280;43247;52.828;-8.980;2023-04-28T02:35:26;100833.73;;;12.58;81.45
57412;BME280;43247;52.828;-8.980;2023-04-28T02:36:25;100835.02;;;12.58;81.51
57412;BME280;43247;52.828;-8.980;2023-04-28T02:37:26;100834.97;;;12.58;81.66
57412;BME280;43247;52.828;-8.980;2023-04-28T02:38:26;100836.39;;;12.58;81.80
57412;BME280;43247;52.828;-8.980;2023-04-28T02:39:26;100837.24;;;12.59;81.89
57412;BME280;43247;52.828;-8.980;2023-04-28T02:40:26;100839.45;;;12.59;81.90
57412;BME280;43247;52.828;-8.980;2023-04-28T02:41:26;100840.12;;;12.59;81.95
57412;BME280;43247;52.828;-8.980;2023-04-28T02:42:26;100841.80;;;12.60;81.92
57412;BME280;43247;52.828;-8.980;2023-04-28T02:43:27;100843.16;;;12.60;81.85
57412;BME280;43247;52.828;-8.980;2023-04-28T02:44:27;100841.57;;;12.60;81.80
57412;BME280;43247;52.828;-8.980;2023-04-28T02:45:27;100842.96;;;12.60;81.77
57412;BME280;43247;52.828;-8.980;2023-04-28T02:46:27;100843.77;;;12.61;81.77
57412;BME280;43247;52.828;-8.980;2023-04-28T02:47:27;100844.40;;;12.61;81.77
57412;BME280;43247;52.828;-8.980;2023-04-28T02:48:27;100844.97;;;12.62;81.75
57412;BME280;43247;52.828;-8.980;2023-04-28T02:49:27;100847.10;;;12.61;81.75
57412;BME280;43247;52.828;-8.980;2023-04-28T02:50:28;100845.05;;;12.62;81.78
57412;BME280;43247;52.828;-8.980;2023-04-28T02:51:28;100844.33;;;12.62;81.83
57412;BME280;43247;52.828;-8.980;2023-04-28T02:52:28;100844.19;;;12.62;81.84
57412;BME280;43247;52.828;-8.980;2023-04-28T02:53:28;100847.37;;;12.63;81.87
57412;BME280;43247;52.828;-8.980;2023-04-28T02:54:28;100850.31;;;12.62;81.80
57412;BME280;43247;52.828;-8.980;2023-04-28T02:55:28;100851.10;;;12.63;81.83
57412;BME280;43247;52.828;-8.980;2023-04-28T02:56:29;100852.80;;;12.63;81.77
57412;BME280;43247;52.828;-8.980;2023-04-28T02:57:29;100850.38;;;12.62;81.87
57412;BME280;43247;52.828;-8.980;2023-04-28T02:58:29;100853.12;;;12.61;82.12
57412;BME280;43247;52.828;-8.980;2023-04-28T02:59:29;100853.90;;;12.60;82.10
57412;BME280;43247;52.828;-8.980;2023-04-28T03:00:29;100855.83;;;12.60;82.05
57412;BME280;43247;52.828;-8.980;2023-04-28T03:01:29;100856.26;;;12.60;82.00
57412;BME280;43247;52.828;-8.980;2023-04-28T03:02:29;100857.80;;;12.60;82.07
57412;BME280;43247;52.828;-8.980;2023-04-28T03:03:30;100858.82;;;12.60;82.04
57412;BME280;43247;52.828;-8.980;2023-04-28T03:04:30;100857.35;;;12.59;81.97
57412;BME280;43247;52.828;-8.980;2023-04-28T03:05:30;100858.29;;;12.59;82.04
57412;BME280;43247;52.828;-8.980;2023-04-28T03:06:30;100860.42;;;12.59;82.02
57412;BME280;43247;52.828;-8.980;2023-04-28T03:07:30;100861.60;;;12.58;82.12
57412;BME280;43247;52.828;-8.980;2023-04-28T03:08:30;100860.66;;;12.58;82.29
57412;BME280;43247;52.828;-8.980;2023-04-28T03:09:31;100862.09;;;12.57;82.35
57412;BME280;43247;52.828;-8.980;2023-04-28T03:10:31;100860.50;;;12.57;82.30
57412;BME280;43247;52.828;-8.980;2023-04-28T03:11:31;100857.69;;;12.57;82.31
57412;BME280;43247;52.828;-8.980;2023-04-28T03:12:31;100859.39;;;12.57;82.28
57412;BME280;43247;52.828;-8.980;2023-04-28T03:13:31;100857.36;;;12.57;82.24
57412;BME280;43247;52.828;-8.980;2023-04-28T03:14:31;100860.13;;;12.57;82.17
57412;BME280;43247;52.828;-8.980;2023-04-28T03:15:32;100860.96;;;12.57;82.18
57412;BME280;43247;52.828;-8.980;2023-04-28T03:16:32;100863.50;;;12.57;82.24
57412;BME280;43247;52.828;-8.980;2023-04-28T03:17:32;100864.98;;;12.56;82.24
57412;BME280;43247;52.828;-8.980;2023-04-28T03:18:32;100864.14;;;12.57;82.22
57412;BME280;43247;52.828;-8.980;2023-04-28T03:19:32;100864.08;;;12.56;82.24
57412;BME280;43247;52.828;-8.980;2023-04-28T03:20:32;100864.40;;;12.56;82.28
57412;BME280;43247;52.828;-8.980;2023-04-28T03:21:32;100864.59;;;12.56;82.24
57412;BME280;43247;52.828;-8.980;2023-04-28T03:22:33;100862.15;;;12.56;82.20
57412;BME280;43247;52.828;-8.980;2023-04-28T03:23:33;100863.68;;;12.56;82.25
57412;BME280;43247;52.828;-8.980;2023-04-28T03:24:33;100863.52;;;12.56;82.29
57412;BME280;43247;52.828;-8.980;2023-04-28T03:25:33;100864.45;;;12.55;82.27
57412;BME280;43247;52.828;-8.980;2023-04-28T03:26:34;100863.28;;;12.55;82.30
57412;BME280;43247;52.828;-8.980;2023-04-28T03:27:33;100864.58;;;12.55;82.37
57412;BME280;43247;52.828;-8.980;2023-04-28T03:28:33;100864.25;;;12.55;82.36
57412;BME280;43247;52.828;-8.980;2023-04-28T03:29:34;100865.98;;;12.55;82.39
57412;BME280;43247;52.828;-8.980;2023-04-28T03:30:34;100864.16;;;12.53;82.53
57412;BME280;43247;52.828;-8.980;2023-04-28T03:31:34;100863.01;;;12.51;82.60
57412;BME280;43247;52.828;-8.980;2023-04-28T03:32:34;100866.30;;;12.51;82.63
57412;BME280;43247;52.828;-8.980;2023-04-28T03:33:34;100866.05;;;12.50;82.63
57412;BME280;43247;52.828;-8.980;2023-04-28T03:34:35;100869.01;;;12.50;82.65
57412;BME280;43247;52.828;-8.980;2023-04-28T03:35:35;100871.74;;;12.49;82.67
57412;BME280;43247;52.828;-8.980;2023-04-28T03:36:35;100871.03;;;12.49;82.67
57412;BME280;43247;52.828;-8.980;2023-04-28T03:37:35;100872.26;;;12.49;82.65
57412;BME280;43247;52.828;-8.980;2023-04-28T03:38:35;100872.34;;;12.49;82.57
57412;BME280;43247;52.828;-8.980;2023-04-28T03:39:35;100873.23;;;12.49;82.57
57412;BME280;43247;52.828;-8.980;2023-04-28T03:40:36;100872.63;;;12.50;82.61
57412;BME280;43247;52.828;-8.980;2023-04-28T03:41:36;100876.06;;;12.50;82.62
57412;BME280;43247;52.828;-8.980;2023-04-28T03:42:36;100874.33;;;12.50;82.65
57412;BME280;43247;52.828;-8.980;2023-04-28T03:43:36;100875.13;;;12.50;82.70
57412;BME280;43247;52.828;-8.980;2023-04-28T03:44:36;100876.16;;;12.51;82.63
57412;BME280;43247;52.828;-8.980;2023-04-28T03:45:36;100877.42;;;12.51;82.58
57412;BME280;43247;52.828;-8.980;2023-04-28T03:46:36;100875.89;;;12.52;82.57
57412;BME280;43247;52.828;-8.980;2023-04-28T03:47:37;100878.43;;;12.52;82.53
57412;BME280;43247;52.828;-8.980;2023-04-28T03:48:37;100879.86;;;12.53;82.46
57412;BME280;43247;52.828;-8.980;2023-04-28T03:49:37;100878.70;;;12.53;82.40
57412;BME280;43247;52.828;-8.980;2023-04-28T03:50:37;100878.63;;;12.54;82.43
57412;BME280;43247;52.828;-8.980;2023-04-28T03:51:37;100879.33;;;12.53;82.48
57412;BME280;43247;52.828;-8.980;2023-04-28T03:52:37;100880.66;;;12.51;82.60
57412;BME280;43247;52.828;-8.980;2023-04-28T03:53:37;100881.62;;;12.48;82.64
57412;BME280;43247;52.828;-8.980;2023-04-28T03:54:38;100882.41;;;12.47;82.71
57412;BME280;43247;52.828;-8.980;2023-04-28T03:55:38;100883.52;;;12.47;82.73
57412;BME280;43247;52.828;-8.980;2023-04-28T03:56:38;100881.50;;;12.47;82.80
57412;BME280;43247;52.828;-8.980;2023-04-28T03:57:38;100883.35;;;12.46;82.79
57412;BME280;43247;52.828;-8.980;2023-04-28T03:58:38;100881.09;;;12.47;82.66
57412;BME280;43247;52.828;-8.980;2023-04-28T03:59:38;100883.29;;;12.47;82.54
57412;BME280;43247;52.828;-8.980;2023-04-28T04:00:39;100883.29;;;12.48;82.47
57412;BME280;43247;52.828;-8.980;2023-04-28T04:01:39;100885.42;;;12.50;82.46
57412;BME280;43247;52.828;-8.980;2023-04-28T04:02:39;100886.73;;;12.50;82.36
57412;BME280;43247;52.828;-8.980;2023-04-28T04:03:39;100887.76;;;12.51;82.31
57412;BME280;43247;52.828;-8.980;2023-04-28T04:04:39;100887.42;;;12.52;82.30
57412;BME280;43247;52.828;-8.980;2023-04-28T04:05:39;100890.02;;;12.53;82.21
57412;BME280;43247;52.828;-8.980;2023-04-28T04:06:40;100886.96;;;12.52;82.16
57412;BME280;43247;52.828;-8.980;2023-04-28T04:07:40;100889.46;;;12.52;82.18
57412;BME280;43247;52.828;-8.980;2023-04-28T04:08:40;100889.28;;;12.51;82.08
57412;BME280;43247;52.828;-8.980;2023-04-28T04:09:40;100887.97;;;12.51;82.14
57412;BME280;43247;52.828;-8.980;2023-04-28T04:10:40;100889.34;;;12.50;82.15
57412;BME280;43247;52.828;-8.980;2023-04-28T04:11:40;100890.17;;;12.51;82.06
57412;BME280;43247;52.828;-8.980;2023-04-28T04:12:40;100890.90;;;12.51;82.11
57412;BME280;43247;52.828;-8.980;2023-04-28T04:13:41;100891.16;;;12.51;82.12
57412;BME280;43247;52.828;-8.980;2023-04-28T04:14:41;100892.39;;;12.52;82.01
57412;BME280;43247;52.828;-8.980;2023-04-28T04:15:41;100891.29;;;12.52;81.87
57412;BME280;43247;52.828;-8.980;2023-04-28T04:16:41;100890.94;;;12.52;81.87
57412;BME280;43247;52.828;-8.980;2023-04-28T04:17:41;100892.55;;;12.53;81.93
57412;BME280;43247;52.828;-8.980;2023-04-28T04:18:41;100893.42;;;12.53;81.99
57412;BME280;43247;52.828;-8.980;2023-04-28T04:19:42;100892.81;;;12.54;81.93
57412;BME280;43247;52.828;-8.980;2023-04-28T04:20:42;100893.36;;;12.54;81.95
57412;BME280;43247;52.828;-8.980;2023-04-28T04:21:42;100893.52;;;12.54;81.95
57412;BME280;43247;52.828;-8.980;2023-04-28T04:22:42;100893.00;;;12.53;82.04
57412;BME280;43247;52.828;-8.980;2023-04-28T04:23:42;100893.87;;;12.52;82.21
57412;BME280;43247;52.828;-8.980;2023-04-28T04:24:42;100893.80;;;12.52;82.22
57412;BME280;43247;52.828;-8.980;2023-04-28T04:25:42;100897.96;;;12.52;82.18
57412;BME280;43247;52.828;-8.980;2023-04-28T04:26:43;100901.20;;;12.52;82.22
57412;BME280;43247;52.828;-8.980;2023-04-28T04:27:43;100899.73;;;12.51;82.23
57412;BME280;43247;52.828;-8.980;2023-04-28T04:28:43;100900.84;;;12.52;82.30
57412;BME280;43247;52.828;-8.980;2023-04-28T04:29:43;100902.23;;;12.52;82.21
57412;BME280;43247;52.828;-8.980;2023-04-28T04:30:43;100903.59;;;12.52;82.31
57412;BME280;43247;52.828;-8.980;2023-04-28T04:31:43;100906.08;;;12.52;82.16
57412;BME280;43247;52.828;-8.980;2023-04-28T04:32:43;100906.76;;;12.53;82.15
57412;BME280;43247;52.828;-8.980;2023-04-28T04:33:44;100907.44;;;12.53;82.25
57412;BME280;43247;52.828;-8.980;2023-04-28T04:34:44;100910.92;;;12.53;82.18
57412;BME280;43247;52.828;-8.980;2023-04-28T04:35:44;100912.18;;;12.53;82.04
57412;BME280;43247;52.828;-8.980;2023-04-28T04:36:44;100913.56;;;12.53;82.07
57412;BME280;43247;52.828;-8.980;2023-04-28T04:37:44;100914.92;;;12.53;82.04
57412;BME280;43247;52.828;-8.980;2023-04-28T04:38:44;100915.91;;;12.53;82.18
57412;BME280;43247;52.828;-8.980;2023-04-28T04:39:45;100917.67;;;12.54;82.17
57412;BME280;43247;52.828;-8.980;2023-04-28T04:40:45;100920.64;;;12.54;82.06
57412;BME280;43247;52.828;-8.980;2023-04-28T04:41:45;100920.46;;;12.54;82.14
57412;BME280;43247;52.828;-8.980;2023-04-28T04:42:45;100921.52;;;12.54;82.15
57412;BME280;43247;52.828;-8.980;2023-04-28T04:43:45;100922.44;;;12.55;82.19
57412;BME280;43247;52.828;-8.980;2023-04-28T04:44:45;100926.00;;;12.56;82.17
57412;BME280;43247;52.828;-8.980;2023-04-28T04:45:46;100924.94;;;12.56;82.05
57412;BME280;43247;52.828;-8.980;2023-04-28T04:46:46;100925.59;;;12.57;82.07
57412;BME280;43247;52.828;-8.980;2023-04-28T04:47:46;100928.67;;;12.58;81.99
57412;BME280;43247;52.828;-8.980;2023-04-28T04:48:46;100927.97;;;12.58;81.81
57412;BME280;43247;52.828;-8.980;2023-04-28T04:49:47;100929.79;;;12.58;81.77
57412;BME280;43247;52.828;-8.980;2023-04-28T04:50:46;100932.63;;;12.59;82.02
57412;BME280;43247;52.828;-8.980;2023-04-28T04:51:46;100931.12;;;12.59;82.08
57412;BME280;43247;52.828;-8.980;2023-04-28T04:52:47;100930.71;;;12.59;82.11
57412;BME280;43247;52.828;-8.980;2023-04-28T04:53:47;100932.02;;;12.59;82.19
57412;BME280;43247;52.828;-8.980;2023-04-28T04:54:47;100932.21;;;12.60;82.16
57412;BME280;43247;52.828;-8.980;2023-04-28T04:55:47;100934.64;;;12.60;82.16
57412;BME280;43247;52.828;-8.980;2023-04-28T04:56:47;100937.98;;;12.60;82.12
57412;BME280;43247;52.828;-8.980;2023-04-28T04:57:47;100940.01;;;12.61;82.12
57412;BME280;43247;52.828;-8.980;2023-04-28T04:58:50;100939.93;;;12.61;82.06
57412;BME280;43247;52.828;-8.980;2023-04-28T04:59:48;100940.00;;;12.61;81.95
57412;BME280;43247;52.828;-8.980;2023-04-28T05:00:48;100944.39;;;12.61;81.91
57412;BME280;43247;52.828;-8.980;2023-04-28T05:01:48;100942.76;;;12.62;81.81
57412;BME280;43247;52.828;-8.980;2023-04-28T05:02:48;100943.72;;;12.62;81.77
57412;BME280;43247;52.828;-8.980;2023-04-28T05:03:48;100946.50;;;12.62;81.73
57412;BME280;43247;52.828;-8.980;2023-04-28T05:04:49;100947.93;;;12.62;81.89
57412;BME280;43247;52.828;-8.980;2023-04-28T05:05:49;100949.87;;;12.62;81.84
57412;BME280;43247;52.828;-8.980;2023-04-28T05:06:49;100951.22;;;12.62;81.85
57412;BME280;43247;52.828;-8.980;2023-04-28T05:07:49;100952.63;;;12.62;81.89
57412;BME280;43247;52.828;-8.980;2023-04-28T05:08:49;100952.17;;;12.62;81.89
57412;BME280;43247;52.828;-8.980;2023-04-28T05:09:49;100953.44;;;12.62;81.85
57412;BME280;43247;52.828;-8.980;2023-04-28T05:10:49;100953.87;;;12.62;81.80